createdAt,value
2017-03-23T04:01:07.102Z,18.62
2017-03-23T04:01:33.589Z,18.68
2017-03-23T04:01:58.510Z,18.68
2017-03-23T04:02:24.082Z,18.57
2017-03-23T04:02:49.657Z,18.62
2017-03-23T04:03:15.277Z,18.68
2017-03-23T04:03:41.121Z,18.59
2017-03-23T04:04:06.843Z,18.67
2017-03-23T04:04:32.331Z,18.68
2017-03-23T04:04:57.921Z,18.65
2017-03-23T04:05:23.452Z,18.68
2017-03-23T04:05:49.003Z,18.59
2017-03-23T04:06:14.560Z,18.72
2017-03-23T04:06:40.149Z,18.7
2017-03-23T04:07:05.739Z,18.68
2017-03-23T04:07:31.958Z,18.67
2017-03-23T04:07:57.529Z,18.61
2017-03-23T04:08:23.083Z,18.58
2017-03-23T04:08:48.731Z,18.7
2017-03-23T04:09:14.314Z,18.62
2017-03-23T04:09:39.880Z,18.67
2017-03-23T04:10:05.545Z,18.67
2017-03-23T04:10:31.099Z,18.58
2017-03-23T04:10:57.600Z,18.59
2017-03-23T04:11:23.206Z,18.59
2017-03-23T04:11:48.768Z,18.72
2017-03-23T04:12:14.326Z,18.67
2017-03-23T04:12:39.905Z,18.7
2017-03-23T04:13:05.528Z,18.64
2017-03-23T04:13:31.086Z,18.67
2017-03-23T04:13:56.650Z,18.61
2017-03-23T04:14:22.215Z,18.62
2017-03-23T04:14:47.799Z,18.68
2017-03-23T04:15:13.366Z,18.62
2017-03-23T04:15:38.924Z,18.64
2017-03-23T04:16:04.486Z,18.67
2017-03-23T04:16:30.045Z,18.65
2017-03-23T04:16:55.611Z,18.64
2017-03-23T04:17:21.186Z,18.67
2017-03-23T04:17:46.816Z,18.68
2017-03-23T04:18:12.387Z,18.68
2017-03-23T04:18:37.966Z,18.68
2017-03-23T04:19:03.539Z,18.62
2017-03-23T04:19:29.078Z,18.59
2017-03-23T04:19:54.638Z,18.7
2017-03-23T04:20:20.221Z,18.7
2017-03-23T04:20:45.862Z,18.68
2017-03-23T04:21:11.438Z,18.7
2017-03-23T04:21:37.002Z,18.72
2017-03-23T04:22:03.106Z,18.65
2017-03-23T04:22:28.196Z,18.59
2017-03-23T04:22:53.763Z,18.61
2017-03-23T04:23:19.338Z,18.65
2017-03-23T04:23:44.889Z,18.68
2017-03-23T04:24:10.488Z,18.62
2017-03-23T04:24:36.069Z,18.67
2017-03-23T04:25:01.621Z,18.62
2017-03-23T04:25:27.189Z,18.67
2017-03-23T04:25:52.822Z,18.67
2017-03-23T04:26:18.380Z,18.72
2017-03-23T04:26:43.947Z,18.73
2017-03-23T04:27:09.627Z,18.59
2017-03-23T04:27:35.200Z,18.61
2017-03-23T04:28:00.760Z,18.67
2017-03-23T04:28:27.109Z,18.64
2017-03-23T04:28:51.885Z,18.61
2017-03-23T04:29:17.453Z,18.62
2017-03-23T04:29:43.022Z,18.61
2017-03-23T04:30:08.601Z,18.67
2017-03-23T04:30:34.204Z,18.59
2017-03-23T04:30:59.808Z,18.61
2017-03-23T04:31:25.352Z,18.62
2017-03-23T04:31:51.130Z,18.61
2017-03-23T04:32:17.189Z,18.62
2017-03-23T04:32:42.755Z,18.73
2017-03-23T04:33:08.287Z,18.61
2017-03-23T04:33:33.822Z,18.57
2017-03-23T04:33:59.380Z,18.68
2017-03-23T04:34:25.017Z,18.64
2017-03-23T04:34:50.610Z,18.68
2017-03-23T04:35:16.201Z,18.61
2017-03-23T04:35:41.814Z,18.68
2017-03-23T04:36:07.519Z,18.67
2017-03-23T04:36:33.083Z,18.62
2017-03-23T04:36:58.630Z,18.67
2017-03-23T04:37:24.213Z,18.58
2017-03-23T04:37:49.781Z,18.59
2017-03-23T04:38:15.347Z,18.55
2017-03-23T04:38:40.922Z,18.68
2017-03-23T04:39:06.487Z,18.61
2017-03-23T04:39:32.075Z,18.62
2017-03-23T04:39:57.650Z,18.64
2017-03-23T04:40:23.211Z,18.57
2017-03-23T04:40:48.784Z,18.59
2017-03-23T04:41:14.338Z,18.62
2017-03-23T04:41:39.919Z,18.57
2017-03-23T04:42:05.465Z,18.59
2017-03-23T04:42:31.028Z,18.7
2017-03-23T04:42:56.589Z,18.7
2017-03-23T04:43:22.152Z,18.67
2017-03-23T04:43:47.692Z,18.61
2017-03-23T04:44:13.259Z,18.67
2017-03-23T04:44:38.794Z,18.68
2017-03-23T04:45:04.377Z,18.59
2017-03-23T04:45:29.977Z,18.62
2017-03-23T04:45:55.680Z,18.61
2017-03-23T04:46:21.254Z,18.57
2017-03-23T04:46:46.812Z,18.65
2017-03-23T04:47:12.479Z,18.67
2017-03-23T04:47:38.038Z,18.64
2017-03-23T04:48:03.592Z,18.61
2017-03-23T04:48:29.128Z,18.65
2017-03-23T04:48:54.817Z,18.7
2017-03-23T04:49:20.387Z,18.58
2017-03-23T04:49:45.937Z,18.72
2017-03-23T04:50:11.499Z,18.64
2017-03-23T04:50:37.058Z,18.64
2017-03-23T04:51:02.700Z,18.57
2017-03-23T04:51:28.239Z,18.64
2017-03-23T04:51:53.785Z,18.59
2017-03-23T04:52:19.375Z,18.61
2017-03-23T04:52:44.944Z,18.61
2017-03-23T04:53:10.590Z,18.62
2017-03-23T04:53:36.152Z,18.72
2017-03-23T04:54:01.720Z,18.55
2017-03-23T04:54:27.285Z,18.61
2017-03-23T04:54:52.854Z,18.62
2017-03-23T04:55:18.470Z,18.7
2017-03-23T04:55:44.049Z,18.64
2017-03-23T04:56:09.632Z,18.57
2017-03-23T04:56:35.277Z,18.61
2017-03-23T04:57:00.826Z,18.58
2017-03-23T04:57:26.397Z,18.72
2017-03-23T04:57:51.943Z,18.59
2017-03-23T04:58:18.135Z,18.59
2017-03-23T04:58:43.076Z,18.68
2017-03-23T04:59:08.775Z,18.68
2017-03-23T04:59:34.340Z,18.57
2017-03-23T04:59:59.914Z,18.65
2017-03-23T05:00:25.490Z,18.58
2017-03-23T05:00:51.080Z,18.68
2017-03-23T05:01:16.622Z,18.68
2017-03-23T05:01:42.172Z,18.64
2017-03-23T05:02:07.749Z,18.57
2017-03-23T05:02:33.329Z,18.59
2017-03-23T05:02:58.927Z,18.68
2017-03-23T05:03:24.514Z,18.65
2017-03-23T05:03:50.078Z,18.49
2017-03-23T05:04:15.749Z,18.64
2017-03-23T05:04:41.307Z,18.64
2017-03-23T05:05:06.860Z,18.64
2017-03-23T05:05:32.410Z,18.64
2017-03-23T05:05:57.962Z,18.62
2017-03-23T05:06:23.536Z,18.65
2017-03-23T05:06:49.630Z,18.58
2017-03-23T05:07:14.782Z,18.67
2017-03-23T05:07:40.334Z,18.58
2017-03-23T05:08:05.900Z,18.62
2017-03-23T05:08:32.125Z,18.61
2017-03-23T05:08:57.040Z,18.55
2017-03-23T05:09:22.732Z,18.59
2017-03-23T05:09:48.296Z,18.62
2017-03-23T05:10:13.852Z,18.67
2017-03-23T05:10:39.417Z,18.65
2017-03-23T05:11:04.959Z,18.64
2017-03-23T05:11:30.556Z,18.64
2017-03-23T05:11:56.124Z,18.57
2017-03-23T05:12:21.698Z,18.62
2017-03-23T05:12:47.258Z,18.61
2017-03-23T05:13:12.940Z,18.65
2017-03-23T05:13:38.518Z,18.55
2017-03-23T05:14:04.082Z,18.58
2017-03-23T05:14:29.700Z,18.58
2017-03-23T05:14:55.271Z,18.55
2017-03-23T05:15:20.852Z,18.61
2017-03-23T05:15:46.546Z,18.61
2017-03-23T05:16:12.132Z,18.59
2017-03-23T05:16:37.682Z,18.58
2017-03-23T05:17:03.234Z,18.62
2017-03-23T05:17:28.889Z,18.55
2017-03-23T05:17:54.472Z,18.58
2017-03-23T05:18:20.030Z,18.64
2017-03-23T05:18:45.631Z,18.57
2017-03-23T05:19:11.194Z,18.57
2017-03-23T05:19:36.781Z,18.57
2017-03-23T05:20:02.333Z,18.61
2017-03-23T05:20:27.892Z,18.64
2017-03-23T05:20:53.488Z,18.62
2017-03-23T05:21:19.066Z,18.55
2017-03-23T05:21:44.640Z,18.58
2017-03-23T05:22:11.030Z,18.58
2017-03-23T05:22:37.204Z,18.57
2017-03-23T05:23:02.807Z,18.61
2017-03-23T05:23:28.364Z,18.58
2017-03-23T05:23:53.983Z,18.65
2017-03-23T05:24:20.481Z,18.59
2017-03-23T05:24:46.078Z,18.52
2017-03-23T05:25:11.631Z,18.62
2017-03-23T05:25:37.194Z,18.58
2017-03-23T05:26:02.767Z,18.58
2017-03-23T05:26:28.340Z,18.61
2017-03-23T05:26:53.958Z,18.54
2017-03-23T05:27:19.520Z,18.58
2017-03-23T05:27:45.081Z,18.61
2017-03-23T05:28:10.760Z,18.58
2017-03-23T05:28:36.333Z,18.58
2017-03-23T05:29:01.933Z,18.59
2017-03-23T05:29:27.521Z,18.59
2017-03-23T05:29:53.642Z,18.52
2017-03-23T05:30:18.689Z,18.57
2017-03-23T05:30:44.296Z,18.58
2017-03-23T05:31:10.089Z,18.58
2017-03-23T05:31:35.662Z,18.58
2017-03-23T05:32:01.343Z,18.57
2017-03-23T05:32:26.959Z,18.57
2017-03-23T05:32:52.587Z,18.61
2017-03-23T05:33:18.161Z,18.58
2017-03-23T05:33:43.748Z,18.57
2017-03-23T05:34:09.362Z,18.55
2017-03-23T05:34:34.951Z,18.57
2017-03-23T05:35:00.521Z,18.54
2017-03-23T05:35:26.097Z,18.54
2017-03-23T05:35:51.775Z,18.54
2017-03-23T05:36:17.337Z,18.57
2017-03-23T05:36:42.885Z,18.46
2017-03-23T05:37:08.427Z,18.55
2017-03-23T05:37:34.055Z,18.55
2017-03-23T05:37:59.619Z,18.58
2017-03-23T05:38:25.178Z,18.58
2017-03-23T05:38:50.738Z,18.61
2017-03-23T05:39:16.308Z,18.55
2017-03-23T05:39:41.861Z,18.47
2017-03-23T05:40:07.452Z,18.59
2017-03-23T05:40:33.116Z,18.55
2017-03-23T05:40:58.745Z,18.57
2017-03-23T05:41:24.296Z,18.54
2017-03-23T05:41:49.862Z,18.57
2017-03-23T05:42:15.449Z,18.52
2017-03-23T05:42:41.028Z,18.46
2017-03-23T05:43:06.588Z,18.54
2017-03-23T05:43:32.150Z,18.47
2017-03-23T05:43:57.728Z,18.57
2017-03-23T05:44:23.286Z,18.55
2017-03-23T05:44:48.847Z,18.55
2017-03-23T05:45:14.443Z,18.58
2017-03-23T05:45:40.008Z,18.54
2017-03-23T05:46:05.593Z,18.57
2017-03-23T05:46:31.269Z,18.57
2017-03-23T05:46:56.841Z,18.55
2017-03-23T05:47:22.448Z,18.57
2017-03-23T05:47:48.168Z,18.55
2017-03-23T05:48:13.745Z,18.55
2017-03-23T05:48:39.377Z,18.58
2017-03-23T05:49:04.952Z,18.59
2017-03-23T05:49:30.542Z,18.57
2017-03-23T05:49:56.117Z,18.59
2017-03-23T05:50:21.692Z,18.55
2017-03-23T05:50:47.302Z,18.5
2017-03-23T05:51:12.857Z,18.5
2017-03-23T05:51:38.649Z,18.52
2017-03-23T05:52:04.191Z,18.52
2017-03-23T05:52:29.771Z,18.55
2017-03-23T05:52:55.362Z,18.58
2017-03-23T05:53:20.915Z,18.55
2017-03-23T05:53:46.490Z,18.54
2017-03-23T05:54:12.054Z,18.54
2017-03-23T05:54:38.483Z,18.5
2017-03-23T05:55:04.051Z,18.52
2017-03-23T05:55:29.647Z,18.61
2017-03-23T05:55:55.230Z,18.57
2017-03-23T05:56:20.794Z,18.59
2017-03-23T05:56:46.364Z,18.52
2017-03-23T05:57:11.938Z,18.55
2017-03-23T05:57:37.562Z,18.52
2017-03-23T05:58:03.127Z,18.58
2017-03-23T05:58:28.685Z,18.54
2017-03-23T05:58:54.288Z,18.52
2017-03-23T05:59:19.865Z,18.43
2017-03-23T05:59:45.464Z,18.61
2017-03-23T06:00:11.043Z,18.44
2017-03-23T06:00:36.633Z,18.52
2017-03-23T06:01:02.200Z,18.49
2017-03-23T06:01:27.758Z,18.57
2017-03-23T06:01:54.158Z,18.46
2017-03-23T06:02:19.766Z,18.55
2017-03-23T06:02:46.150Z,18.49
2017-03-23T06:03:10.927Z,18.44
2017-03-23T06:03:36.541Z,18.5
2017-03-23T06:04:02.102Z,18.57
2017-03-23T06:04:27.688Z,18.5
2017-03-23T06:04:53.247Z,18.52
2017-03-23T06:05:18.824Z,18.46
2017-03-23T06:05:44.370Z,18.55
2017-03-23T06:06:09.961Z,18.55
2017-03-23T06:06:35.610Z,18.49
2017-03-23T06:07:01.248Z,18.46
2017-03-23T06:07:26.811Z,18.46
2017-03-23T06:07:52.362Z,18.46
2017-03-23T06:08:17.989Z,18.5
2017-03-23T06:08:43.582Z,18.52
2017-03-23T06:09:09.141Z,18.55
2017-03-23T06:09:34.759Z,18.46
2017-03-23T06:10:00.340Z,18.54
2017-03-23T06:10:25.898Z,18.46
2017-03-23T06:10:51.464Z,18.54
2017-03-23T06:11:17.098Z,18.46
2017-03-23T06:11:42.676Z,18.49
2017-03-23T06:12:08.269Z,18.47
2017-03-23T06:12:33.910Z,18.47
2017-03-23T06:12:59.487Z,18.54
2017-03-23T06:13:25.077Z,18.55
2017-03-23T06:13:50.667Z,18.54
2017-03-23T06:14:39.027Z,18.52
2017-03-23T06:15:04.684Z,18.5
2017-03-23T06:15:30.216Z,18.57
2017-03-23T06:15:55.944Z,18.44
2017-03-23T06:16:21.501Z,18.61
2017-03-23T06:16:47.127Z,18.55
2017-03-23T06:17:12.705Z,18.5
2017-03-23T06:17:38.251Z,18.5
2017-03-23T06:18:03.786Z,18.52
2017-03-23T06:18:29.468Z,18.52
2017-03-23T06:18:55.089Z,18.59
2017-03-23T06:19:20.631Z,18.52
2017-03-23T06:19:46.400Z,18.55
2017-03-23T06:20:11.969Z,18.5
2017-03-23T06:20:37.537Z,18.52
2017-03-23T06:21:03.127Z,18.49
2017-03-23T06:21:28.761Z,18.49
2017-03-23T06:21:54.339Z,18.5
2017-03-23T06:22:20.401Z,18.49
2017-03-23T06:22:45.988Z,18.49
2017-03-23T06:23:11.551Z,18.54
2017-03-23T06:23:37.220Z,18.49
2017-03-23T06:24:02.780Z,18.55
2017-03-23T06:24:28.330Z,18.55
2017-03-23T06:24:53.948Z,18.5
2017-03-23T06:25:19.531Z,18.47
2017-03-23T06:25:45.188Z,18.54
2017-03-23T06:26:10.750Z,18.46
2017-03-23T06:26:36.274Z,18.57
2017-03-23T06:27:01.958Z,18.5
2017-03-23T06:27:27.526Z,18.57
2017-03-23T06:27:53.084Z,18.43
2017-03-23T06:28:18.616Z,18.49
2017-03-23T06:28:44.228Z,18.47
2017-03-23T06:29:09.784Z,18.58
2017-03-23T06:29:35.341Z,18.49
2017-03-23T06:30:00.889Z,18.47
2017-03-23T06:30:26.463Z,18.44
2017-03-23T06:30:52.021Z,18.46
2017-03-23T06:31:19.382Z,18.43
2017-03-23T06:31:44.087Z,18.43
2017-03-23T06:32:09.731Z,18.42
2017-03-23T06:32:35.321Z,18.46
2017-03-23T06:33:00.897Z,18.43
2017-03-23T06:33:26.551Z,18.44
2017-03-23T06:33:52.119Z,18.43
2017-03-23T06:34:17.689Z,18.44
2017-03-23T06:34:43.351Z,18.43
2017-03-23T06:35:08.898Z,18.42
2017-03-23T06:35:34.442Z,18.43
2017-03-23T06:36:00.034Z,18.43
2017-03-23T06:36:25.690Z,18.46
2017-03-23T06:36:51.291Z,18.42
2017-03-23T06:37:16.866Z,18.43
2017-03-23T06:37:42.554Z,18.44
2017-03-23T06:38:08.126Z,18.42
2017-03-23T06:38:33.747Z,18.4
2017-03-23T06:38:59.316Z,18.39
2017-03-23T06:39:24.897Z,18.43
2017-03-23T06:39:50.501Z,18.49
2017-03-23T06:40:16.087Z,18.4
2017-03-23T06:40:41.674Z,18.44
2017-03-23T06:41:07.231Z,18.43
2017-03-23T06:41:32.814Z,18.37
2017-03-23T06:41:58.413Z,18.37
2017-03-23T06:42:24.752Z,18.39
2017-03-23T06:42:50.317Z,18.47
2017-03-23T06:43:15.901Z,18.42
2017-03-23T06:43:41.539Z,18.42
2017-03-23T06:44:07.127Z,18.4
2017-03-23T06:44:32.709Z,18.44
2017-03-23T06:44:58.249Z,18.39
2017-03-23T06:45:23.801Z,18.44
2017-03-23T06:45:49.462Z,18.43
2017-03-23T06:46:15.022Z,18.39
2017-03-23T06:46:40.570Z,18.46
2017-03-23T06:47:06.111Z,18.46
2017-03-23T06:47:31.668Z,18.46
2017-03-23T06:47:57.239Z,18.52
2017-03-23T06:48:22.828Z,18.4
2017-03-23T06:48:48.402Z,18.37
2017-03-23T06:49:13.995Z,18.49
2017-03-23T06:49:39.547Z,18.37
2017-03-23T06:50:05.105Z,18.39
2017-03-23T06:50:30.661Z,18.42
2017-03-23T06:50:56.305Z,18.39
2017-03-23T06:51:21.982Z,18.42
2017-03-23T06:51:48.389Z,18.44
2017-03-23T06:52:13.265Z,18.39
2017-03-23T06:52:38.883Z,18.44
2017-03-23T06:53:04.449Z,18.47
2017-03-23T06:53:30.002Z,18.49
2017-03-23T06:53:55.567Z,18.44
2017-03-23T06:54:21.138Z,18.43
2017-03-23T06:54:46.701Z,18.47
2017-03-23T06:55:12.231Z,18.44
2017-03-23T06:55:37.772Z,18.43
2017-03-23T06:56:04.198Z,18.42
2017-03-23T06:56:29.769Z,18.5
2017-03-23T06:56:55.365Z,18.47
2017-03-23T06:57:20.945Z,18.4
2017-03-23T06:57:46.502Z,18.39
2017-03-23T06:58:12.151Z,18.43
2017-03-23T06:58:37.710Z,18.43
2017-03-23T06:59:03.384Z,18.39
2017-03-23T06:59:28.933Z,18.43
2017-03-23T06:59:54.502Z,18.4
2017-03-23T07:00:20.061Z,18.43
2017-03-23T07:00:45.622Z,18.42
2017-03-23T07:01:43.975Z,18.4
2017-03-23T07:02:09.555Z,18.39
2017-03-23T07:02:35.291Z,18.39
2017-03-23T07:03:00.820Z,18.47
2017-03-23T07:03:26.947Z,18.39
2017-03-23T07:03:51.975Z,18.44
2017-03-23T07:04:17.544Z,18.37
2017-03-23T07:04:43.124Z,18.49
2017-03-23T07:05:08.658Z,18.4
2017-03-23T07:05:34.229Z,18.39
2017-03-23T07:05:59.841Z,18.42
2017-03-23T07:06:25.425Z,18.42
2017-03-23T07:06:50.999Z,18.42
2017-03-23T07:07:16.639Z,18.4
2017-03-23T07:07:42.187Z,18.42
2017-03-23T07:08:07.768Z,18.4
2017-03-23T07:08:33.341Z,18.44
2017-03-23T07:08:58.942Z,18.47
2017-03-23T07:09:25.286Z,18.42
2017-03-23T07:09:50.850Z,18.34
2017-03-23T07:10:16.561Z,18.42
2017-03-23T07:10:42.217Z,18.37
2017-03-23T07:11:07.788Z,18.47
2017-03-23T07:11:33.420Z,18.43
2017-03-23T07:11:58.992Z,18.42
2017-03-23T07:12:24.539Z,18.43
2017-03-23T07:12:50.955Z,18.36
2017-03-23T07:13:15.710Z,18.39
2017-03-23T07:13:41.254Z,18.37
2017-03-23T07:14:06.815Z,18.37
2017-03-23T07:14:32.947Z,18.31
2017-03-23T07:14:57.957Z,18.33
2017-03-23T07:15:23.631Z,18.36
2017-03-23T07:15:49.171Z,18.36
2017-03-23T07:16:15.448Z,18.34
2017-03-23T07:16:40.320Z,18.37
2017-03-23T07:17:06.525Z,18.36
2017-03-23T07:17:32.088Z,18.36
2017-03-23T07:17:57.679Z,18.36
2017-03-23T07:18:23.230Z,18.34
2017-03-23T07:18:48.784Z,18.33
2017-03-23T07:19:14.352Z,18.4
2017-03-23T07:19:39.880Z,18.37
2017-03-23T07:20:05.422Z,18.43
2017-03-23T07:20:30.994Z,18.42
2017-03-23T07:20:56.561Z,18.36
2017-03-23T07:21:22.121Z,18.39
2017-03-23T07:21:47.730Z,18.39
2017-03-23T07:22:13.315Z,18.37
2017-03-23T07:22:38.929Z,18.37
2017-03-23T07:23:04.466Z,18.33
2017-03-23T07:24:02.205Z,18.34
2017-03-23T07:24:27.771Z,18.34
2017-03-23T07:24:54.179Z,18.36
2017-03-23T07:25:18.906Z,18.4
2017-03-23T07:25:44.562Z,18.31
2017-03-23T07:26:10.126Z,18.37
2017-03-23T07:26:35.709Z,18.37
2017-03-23T07:27:01.908Z,18.37
2017-03-23T07:27:27.472Z,18.33
2017-03-23T07:27:53.015Z,18.36
2017-03-23T07:28:19.207Z,18.34
2017-03-23T07:28:44.810Z,18.31
2017-03-23T07:29:11.089Z,18.4
2017-03-23T07:29:36.670Z,18.33
2017-03-23T07:30:02.838Z,18.36
2017-03-23T07:30:28.413Z,18.31
2017-03-23T07:30:54.020Z,18.34
2017-03-23T07:31:20.189Z,18.33
2017-03-23T07:31:45.949Z,18.33
2017-03-23T07:32:12.040Z,18.33
2017-03-23T07:32:37.611Z,18.39
2017-03-23T07:33:03.160Z,18.37
2017-03-23T07:33:29.453Z,18.4
2017-03-23T07:33:55.099Z,18.31
2017-03-23T07:34:21.158Z,18.33
2017-03-23T07:34:46.753Z,18.34
2017-03-23T07:35:12.927Z,18.39
2017-03-23T07:35:38.485Z,18.33
2017-03-23T07:36:04.128Z,18.29
2017-03-23T07:36:30.278Z,18.36
2017-03-23T07:36:55.861Z,18.37
2017-03-23T07:37:22.127Z,18.31
2017-03-23T07:37:47.684Z,18.39
2017-03-23T07:38:13.266Z,18.43
2017-03-23T07:38:39.421Z,18.36
2017-03-23T07:39:05.062Z,18.39
2017-03-23T07:39:31.219Z,18.36
2017-03-23T07:39:56.787Z,18.36
2017-03-23T07:40:22.995Z,18.37
2017-03-23T07:40:48.555Z,18.34
2017-03-23T07:41:14.190Z,18.36
2017-03-23T07:41:40.388Z,18.34
2017-03-23T07:42:05.937Z,18.36
2017-03-23T07:42:32.272Z,18.33
2017-03-23T07:42:57.834Z,18.31
2017-03-23T07:43:23.409Z,18.39
2017-03-23T07:43:49.606Z,18.33
2017-03-23T07:44:15.219Z,18.33
2017-03-23T07:44:41.383Z,18.31
2017-03-23T07:45:06.940Z,18.4
2017-03-23T07:45:33.082Z,18.37
2017-03-23T07:45:58.693Z,18.29
2017-03-23T07:46:24.351Z,18.34
2017-03-23T07:46:50.535Z,18.34
2017-03-23T07:47:16.171Z,18.33
2017-03-23T07:47:42.233Z,18.36
2017-03-23T07:48:07.793Z,18.4
2017-03-23T07:48:33.451Z,18.33
2017-03-23T07:48:59.708Z,18.33
2017-03-23T07:49:25.362Z,18.34
2017-03-23T07:49:51.439Z,18.33
2017-03-23T07:50:17.001Z,18.36
2017-03-23T07:50:43.271Z,18.36
2017-03-23T07:51:09.005Z,18.34
2017-03-23T07:51:34.613Z,18.36
2017-03-23T07:52:00.528Z,18.36
2017-03-23T07:52:26.093Z,18.33
2017-03-23T07:52:52.376Z,18.33
2017-03-23T07:53:17.975Z,18.4
2017-03-23T07:53:43.554Z,18.36
2017-03-23T07:54:09.703Z,18.31
2017-03-23T07:54:35.369Z,18.37
2017-03-23T07:55:02.304Z,18.36
2017-03-23T07:55:27.104Z,18.33
2017-03-23T07:55:53.323Z,18.4
2017-03-23T07:56:18.919Z,18.37
2017-03-23T07:56:44.496Z,18.33
2017-03-23T07:57:10.627Z,18.34
2017-03-23T07:57:36.695Z,18.36
2017-03-23T07:58:03.191Z,18.4
2017-03-23T07:58:28.019Z,18.36
2017-03-23T07:58:53.641Z,18.34
2017-03-23T07:59:19.901Z,18.34
2017-03-23T08:00:28.592Z,18.37
2017-03-23T08:01:16.500Z,18.33
2017-03-23T08:01:42.165Z,18.33
2017-03-23T08:02:07.733Z,18.4
2017-03-23T08:02:33.321Z,18.34
2017-03-23T08:02:59.002Z,18.28
2017-03-23T08:03:24.693Z,18.36
2017-03-23T08:03:50.271Z,18.36
2017-03-23T08:04:15.900Z,18.34
2017-03-23T08:04:41.455Z,18.37
2017-03-23T08:05:07.023Z,18.36
2017-03-23T08:05:32.628Z,18.36
2017-03-23T08:05:58.186Z,18.36
2017-03-23T08:06:23.815Z,18.37
2017-03-23T08:06:49.361Z,18.29
2017-03-23T08:07:14.998Z,18.36
2017-03-23T08:07:40.578Z,18.33
2017-03-23T08:08:06.117Z,18.34
2017-03-23T08:08:31.825Z,18.31
2017-03-23T08:08:57.375Z,18.33
2017-03-23T08:09:22.976Z,18.34
2017-03-23T08:09:48.556Z,18.4
2017-03-23T08:10:14.218Z,18.36
2017-03-23T08:10:39.859Z,18.31
2017-03-23T08:11:48.382Z,18.33
2017-03-23T08:12:14.041Z,18.39
2017-03-23T08:12:39.707Z,18.39
2017-03-23T08:13:05.249Z,18.42
2017-03-23T08:13:30.958Z,18.4
2017-03-23T08:13:56.579Z,18.31
2017-03-23T08:14:22.125Z,18.31
2017-03-23T08:14:47.837Z,18.34
2017-03-23T08:15:13.385Z,18.39
2017-03-23T08:16:11.488Z,18.36
2017-03-23T08:16:37.241Z,18.25
2017-03-23T08:17:02.903Z,18.37
2017-03-23T08:17:28.464Z,18.33
2017-03-23T08:17:54.084Z,18.37
2017-03-23T08:18:19.789Z,18.27
2017-03-23T08:18:45.370Z,18.28
2017-03-23T08:19:11.704Z,18.34
2017-03-23T08:19:37.261Z,18.39
2017-03-23T08:20:02.832Z,18.34
2017-03-23T08:20:29.299Z,18.28
2017-03-23T08:20:54.950Z,18.31
2017-03-23T08:21:20.529Z,18.34
2017-03-23T08:21:46.182Z,18.34
2017-03-23T08:22:11.848Z,18.31
2017-03-23T08:22:37.406Z,18.31
2017-03-23T08:23:03.088Z,18.39
2017-03-23T08:23:28.682Z,18.29
2017-03-23T08:23:54.722Z,18.27
2017-03-23T08:24:19.811Z,18.28
2017-03-23T08:24:45.389Z,18.34
2017-03-23T08:25:11.016Z,18.25
2017-03-23T08:25:36.585Z,18.28
2017-03-23T08:26:02.228Z,18.33
2017-03-23T08:26:27.916Z,18.34
2017-03-23T08:26:53.462Z,18.31
2017-03-23T08:27:19.093Z,18.27
2017-03-23T08:27:45.316Z,18.31
2017-03-23T08:28:10.882Z,18.33
2017-03-23T08:28:36.462Z,18.29
2017-03-23T08:29:02.152Z,18.27
2017-03-23T08:29:27.859Z,18.34
2017-03-23T08:29:53.415Z,18.31
2017-03-23T08:30:19.011Z,18.25
2017-03-23T08:30:44.601Z,18.25
2017-03-23T08:31:10.229Z,18.28
2017-03-23T08:31:35.884Z,18.33
2017-03-23T08:32:01.477Z,18.31
2017-03-23T08:32:27.097Z,18.25
2017-03-23T08:32:52.665Z,18.25
2017-03-23T08:33:18.223Z,18.34
2017-03-23T08:33:43.863Z,18.25
2017-03-23T08:34:09.381Z,18.31
2017-03-23T08:34:35.051Z,18.34
2017-03-23T08:35:00.624Z,18.28
2017-03-23T08:35:27.231Z,18.37
2017-03-23T08:35:51.902Z,18.31
2017-03-23T08:36:17.490Z,18.27
2017-03-23T08:36:43.121Z,18.25
2017-03-23T08:37:08.678Z,18.27
2017-03-23T08:37:34.276Z,18.24
2017-03-23T08:37:59.966Z,18.27
2017-03-23T08:38:25.573Z,18.36
2017-03-23T08:38:51.241Z,18.29
2017-03-23T08:39:16.856Z,18.31
2017-03-23T08:39:42.428Z,18.27
2017-03-23T08:40:08.076Z,18.34
2017-03-23T08:40:33.644Z,18.33
2017-03-23T08:40:59.318Z,18.27
2017-03-23T08:42:07.730Z,18.31
2017-03-23T08:42:33.395Z,18.27
2017-03-23T08:42:59.033Z,18.31
2017-03-23T08:43:24.607Z,18.27
2017-03-23T08:43:50.252Z,18.24
2017-03-23T08:44:15.824Z,18.29
2017-03-23T08:45:14.058Z,18.31
2017-03-23T08:45:39.550Z,18.25
2017-03-23T08:46:05.204Z,18.24
2017-03-23T08:46:30.756Z,18.29
2017-03-23T08:47:34.310Z,18.29
2017-03-23T08:48:26.306Z,18.31
2017-03-23T08:48:52.520Z,18.33
2017-03-23T08:49:18.166Z,18.27
2017-03-23T08:49:43.742Z,18.24
2017-03-23T08:50:52.047Z,18.28
2017-03-23T08:51:39.869Z,18.27
2017-03-23T08:52:05.622Z,18.24
2017-03-23T08:52:31.219Z,18.34
2017-03-23T08:52:56.769Z,18.31
2017-03-23T08:53:22.457Z,18.31
2017-03-23T08:53:48.037Z,18.27
2017-03-23T08:54:13.697Z,18.34
2017-03-23T08:54:39.343Z,18.28
2017-03-23T08:55:04.899Z,18.36
2017-03-23T08:55:30.562Z,18.29
2017-03-23T08:55:56.970Z,18.36
2017-03-23T08:56:22.558Z,18.33
2017-03-23T08:56:48.208Z,18.31
2017-03-23T08:57:13.846Z,18.29
2017-03-23T08:57:39.527Z,18.28
2017-03-23T08:58:05.290Z,18.24
2017-03-23T08:58:30.850Z,18.25
2017-03-23T08:58:56.982Z,18.29
2017-03-23T08:59:22.758Z,18.29
2017-03-23T08:59:48.418Z,18.36
2017-03-23T09:00:13.973Z,18.28
2017-03-23T09:00:39.662Z,18.24
2017-03-23T09:01:05.259Z,18.24
2017-03-23T09:01:30.845Z,18.36
2017-03-23T09:01:56.433Z,18.36
2017-03-23T09:02:22.001Z,18.36
2017-03-23T09:02:47.688Z,18.25
2017-03-23T09:03:13.296Z,18.33
2017-03-23T09:03:38.879Z,18.27
2017-03-23T09:04:04.476Z,18.22
2017-03-23T09:04:30.049Z,18.27
2017-03-23T09:04:55.698Z,18.27
2017-03-23T09:05:21.408Z,18.29
2017-03-23T09:05:46.988Z,18.22
2017-03-23T09:06:12.600Z,18.31
2017-03-23T09:06:38.156Z,18.28
2017-03-23T09:07:03.749Z,18.25
2017-03-23T09:07:29.312Z,18.31
2017-03-23T09:07:54.909Z,18.29
2017-03-23T09:08:20.540Z,18.29
2017-03-23T09:08:46.109Z,18.27
2017-03-23T09:09:49.624Z,18.29
2017-03-23T09:10:42.601Z,18.28
2017-03-23T09:11:08.177Z,18.28
2017-03-23T09:11:34.819Z,18.31
2017-03-23T09:12:00.420Z,18.29
2017-03-23T09:12:26.031Z,18.28
2017-03-23T09:12:51.671Z,18.27
2017-03-23T09:13:17.237Z,18.29
2017-03-23T09:13:42.814Z,18.28
2017-03-23T09:14:08.473Z,18.27
2017-03-23T09:14:34.035Z,18.28
2017-03-23T09:14:59.768Z,18.31
2017-03-23T09:15:25.495Z,18.29
2017-03-23T09:16:19.129Z,18.28
2017-03-23T09:16:45.760Z,18.29
2017-03-23T09:17:10.532Z,18.31
2017-03-23T09:17:36.049Z,18.27
2017-03-23T09:18:01.711Z,18.27
2017-03-23T09:18:49.608Z,18.22
2017-03-23T09:19:15.182Z,18.25
2017-03-23T09:19:40.963Z,18.27
2017-03-23T09:20:06.603Z,18.29
2017-03-23T09:20:32.204Z,18.27
2017-03-23T09:20:57.871Z,18.28
2017-03-23T09:21:23.447Z,18.25
2017-03-23T09:21:49.131Z,18.28
2017-03-23T09:22:14.727Z,18.29
2017-03-23T09:22:40.298Z,18.28
2017-03-23T09:23:05.939Z,18.25
2017-03-23T09:23:31.674Z,18.22
2017-03-23T09:23:57.248Z,18.25
2017-03-23T09:24:22.860Z,18.28
2017-03-23T09:25:32.498Z,18.31
2017-03-23T09:25:58.203Z,18.28
2017-03-23T09:26:23.852Z,18.25
2017-03-23T09:26:49.428Z,18.27
2017-03-23T09:27:15.785Z,18.31
2017-03-23T09:27:41.399Z,18.19
2017-03-23T09:28:07.071Z,18.19
2017-03-23T09:28:32.733Z,18.24
2017-03-23T09:28:58.340Z,18.29
2017-03-23T09:29:23.988Z,18.25
2017-03-23T09:29:49.555Z,18.24
2017-03-23T09:30:15.141Z,18.31
2017-03-23T09:30:40.837Z,18.29
2017-03-23T09:31:06.407Z,18.31
2017-03-23T09:31:32.015Z,18.27
2017-03-23T09:31:57.581Z,18.25
2017-03-23T09:33:39.187Z,18.28
2017-03-23T09:34:04.813Z,18.28
2017-03-23T09:34:30.398Z,18.24
2017-03-23T09:34:56.883Z,18.28
2017-03-23T09:35:21.632Z,18.31
2017-03-23T09:35:47.172Z,18.25
2017-03-23T09:36:12.835Z,18.34
2017-03-23T09:36:38.383Z,18.29
2017-03-23T09:37:03.998Z,18.28
2017-03-23T09:37:29.669Z,18.31
2017-03-23T09:37:55.250Z,18.29
2017-03-23T09:38:20.905Z,18.31
2017-03-23T09:38:46.541Z,18.28
2017-03-23T09:39:12.149Z,18.24
2017-03-23T09:39:37.730Z,18.22
2017-03-23T09:40:03.401Z,18.31
2017-03-23T09:40:29.077Z,18.24
2017-03-23T09:40:54.677Z,18.31
2017-03-23T09:41:20.309Z,18.28
2017-03-23T09:41:45.942Z,18.24
2017-03-23T09:42:11.532Z,18.21
2017-03-23T09:42:37.189Z,18.28
2017-03-23T09:43:02.749Z,18.31